createdAt,value
2023-09-16T00:01:20.462Z,3.43
2023-09-16T00:03:47.811Z,3.87
2023-09-16T00:06:15.438Z,3.60
2023-09-16T00:08:44.227Z,4.13
2023-09-16T00:11:11.337Z,3.70
2023-09-16T00:13:38.390Z,3.97
2023-09-16T00:16:06.038Z,3.60
2023-09-16T00:18:33.338Z,3.20
2023-09-16T00:21:00.202Z,3.60
2023-09-16T00:23:26.972Z,3.60
2023-09-16T00:25:53.786Z,3.73
2023-09-16T00:28:20.378Z,3.70
2023-09-16T00:30:47.122Z,3.47
2023-09-16T00:33:14.055Z,3.37
2023-09-16T00:35:40.660Z,3.10
2023-09-16T00:38:07.275Z,3.80
2023-09-16T00:40:33.902Z,3.60
2023-09-16T00:43:01.109Z,3.60
2023-09-16T00:45:29.046Z,3.83
2023-09-16T00:47:55.766Z,3.47
2023-09-16T00:50:22.751Z,3.10
2023-09-16T00:52:54.780Z,3.60
2023-09-16T00:55:21.958Z,3.30
2023-09-16T00:57:51.802Z,3.60
2023-09-16T01:00:19.029Z,3.33
2023-09-16T01:02:46.955Z,3.77
2023-09-16T01:05:18.275Z,4.00
2023-09-16T01:07:50.118Z,4.00
2023-09-16T01:10:21.911Z,3.87
2023-09-16T01:12:51.191Z,3.30
2023-09-16T01:15:20.022Z,3.90
2023-09-16T01:18:05.769Z,3.93
2023-09-16T01:20:33.873Z,3.63
2023-09-16T01:23:00.915Z,4.43
2023-09-16T01:25:29.944Z,4.03
2023-09-16T01:27:56.999Z,3.97
2023-09-16T01:30:27.300Z,3.43
2023-09-16T01:33:00.431Z,3.70
2023-09-16T01:35:33.534Z,3.30
2023-09-16T01:38:00.708Z,3.73
2023-09-16T01:40:30.298Z,3.40
2023-09-16T01:42:59.931Z,3.80
2023-09-16T01:45:40.284Z,3.57
2023-09-16T01:48:07.287Z,3.50
2023-09-16T01:50:34.064Z,3.40
2023-09-16T01:53:02.212Z,3.40
2023-09-16T01:55:29.475Z,3.30
2023-09-16T01:57:56.042Z,3.20
2023-09-16T02:00:24.553Z,4.00
2023-09-16T02:02:52.274Z,3.67
2023-09-16T02:05:18.982Z,3.70
2023-09-16T02:07:45.722Z,3.37
2023-09-16T02:10:13.341Z,3.40
2023-09-16T02:12:41.727Z,4.07
2023-09-16T02:15:11.078Z,3.20
2023-09-16T02:17:40.238Z,3.93
2023-09-16T02:20:14.288Z,3.70
2023-09-16T02:22:45.446Z,3.50
2023-09-16T02:25:12.580Z,4.10
2023-09-16T02:27:42.118Z,3.90
2023-09-16T02:30:08.905Z,3.60
2023-09-16T02:32:36.237Z,3.60
2023-09-16T02:35:04.681Z,3.27
2023-09-16T02:37:31.279Z,3.53
2023-09-16T02:39:57.929Z,3.77
2023-09-16T02:42:24.539Z,3.87
2023-09-16T02:44:51.823Z,3.50
2023-09-16T02:47:18.449Z,3.90
2023-09-16T02:49:45.200Z,4.00
2023-09-16T02:52:12.185Z,3.63
2023-09-16T02:54:38.819Z,4.10
2023-09-16T02:57:05.419Z,3.83
2023-09-16T02:59:32.379Z,3.73
2023-09-16T03:01:59.141Z,4.63
2023-09-16T03:04:25.767Z,3.70
2023-09-16T03:06:52.723Z,4.70
2023-09-16T03:09:20.575Z,4.40
2023-09-16T03:11:48.220Z,4.20
2023-09-16T03:14:15.627Z,5.07
2023-09-16T03:16:43.713Z,4.93
2023-09-16T03:19:11.837Z,3.70
2023-09-16T03:21:39.236Z,4.53
2023-09-16T03:24:06.133Z,4.70
2023-09-16T03:26:34.156Z,4.70
2023-09-16T03:29:01.297Z,4.80
2023-09-16T03:31:29.459Z,4.40
2023-09-16T03:34:02.689Z,4.37
2023-09-16T03:36:29.733Z,4.43
2023-09-16T03:38:56.404Z,5.47
2023-09-16T03:41:24.577Z,5.17
2023-09-16T03:43:57.978Z,4.60
2023-09-16T03:46:25.370Z,4.87
2023-09-16T03:48:53.155Z,4.20
2023-09-16T03:51:21.753Z,5.07
2023-09-16T03:53:49.950Z,4.70
2023-09-16T03:56:16.669Z,4.53
2023-09-16T03:58:43.281Z,4.50
2023-09-16T04:01:10.924Z,4.43
2023-09-16T04:03:38.065Z,4.63
2023-09-16T04:06:05.848Z,4.83
2023-09-16T04:08:41.326Z,4.50
2023-09-16T04:11:11.038Z,4.33
2023-09-16T04:13:38.545Z,4.23
2023-09-16T04:16:05.463Z,4.10
2023-09-16T04:18:32.221Z,4.80
2023-09-16T04:20:58.883Z,4.83
2023-09-16T04:23:26.297Z,4.70
2023-09-16T04:25:57.433Z,5.03
2023-09-16T04:28:24.771Z,4.43
2023-09-16T04:30:53.729Z,4.40
2023-09-16T04:33:22.423Z,4.80
2023-09-16T04:35:50.773Z,4.20
2023-09-16T04:38:19.592Z,5.00
2023-09-16T04:40:50.615Z,5.30
2023-09-16T04:43:18.266Z,4.60
2023-09-16T04:45:50.127Z,4.47
2023-09-16T04:48:24.561Z,5.50
2023-09-16T04:50:51.252Z,4.50
2023-09-16T04:53:19.087Z,4.97
2023-09-16T04:55:45.971Z,4.37
2023-09-16T04:58:12.769Z,4.63
2023-09-16T05:00:40.215Z,5.60
2023-09-16T05:03:08.107Z,5.50
2023-09-16T05:05:36.343Z,5.00
2023-09-16T05:08:04.623Z,5.13
2023-09-16T05:10:33.144Z,5.47
2023-09-16T05:13:00.577Z,5.23
2023-09-16T05:15:28.646Z,6.13
2023-09-16T05:17:55.752Z,5.93
2023-09-16T05:20:22.704Z,6.77
2023-09-16T05:22:49.962Z,5.60
2023-09-16T05:25:18.103Z,5.20
2023-09-16T05:27:45.407Z,5.80
2023-09-16T05:30:12.303Z,5.50
2023-09-16T05:32:39.578Z,5.73
2023-09-16T05:35:06.428Z,5.40
2023-09-16T05:37:33.129Z,5.80
2023-09-16T05:40:01.910Z,6.57
2023-09-16T05:42:29.860Z,5.93
2023-09-16T05:44:56.481Z,5.13
2023-09-16T05:47:23.749Z,4.93
2023-09-16T05:49:50.444Z,5.17
2023-09-16T05:52:17.103Z,5.20
2023-09-16T05:54:44.351Z,6.00
2023-09-16T05:57:11.439Z,5.37
2023-09-16T05:59:38.047Z,5.20
2023-09-16T06:02:05.286Z,6.63
2023-09-16T06:04:32.720Z,5.60
2023-09-16T06:06:59.541Z,6.10
2023-09-16T06:09:26.238Z,5.70
2023-09-16T06:11:53.348Z,6.07
2023-09-16T06:14:20.126Z,5.40
2023-09-16T06:16:47.471Z,6.50
2023-09-16T06:19:14.154Z,6.60
2023-09-16T06:21:40.974Z,5.60
2023-09-16T06:24:07.888Z,7.43
2023-09-16T06:26:34.579Z,5.93
2023-09-16T06:29:01.212Z,6.90
2023-09-16T06:31:27.786Z,5.87
2023-09-16T06:33:56.481Z,6.33
2023-09-16T06:36:23.897Z,6.27
2023-09-16T06:38:51.081Z,6.20
2023-09-16T06:41:18.708Z,6.00
2023-09-16T06:43:45.340Z,6.50
2023-09-16T06:46:12.019Z,5.73
2023-09-16T06:48:39.186Z,7.03
2023-09-16T06:51:06.402Z,6.60
2023-09-16T06:53:33.524Z,6.77
2023-09-16T06:56:00.981Z,6.20
2023-09-16T06:58:27.577Z,6.00
2023-09-16T07:00:54.317Z,5.77
2023-09-16T07:03:22.081Z,6.07
2023-09-16T07:05:51.664Z,5.93
2023-09-16T07:08:19.848Z,6.13
2023-09-16T07:10:46.590Z,6.07
2023-09-16T07:13:13.206Z,5.33
2023-09-16T07:15:39.954Z,5.70
2023-09-16T07:18:06.751Z,5.90
2023-09-16T07:20:33.982Z,5.93
2023-09-16T07:23:00.980Z,4.90
2023-09-16T07:25:27.674Z,5.60
2023-09-16T07:27:56.072Z,5.23
2023-09-16T07:30:23.835Z,5.10
2023-09-16T07:32:51.969Z,5.17
2023-09-16T07:35:19.398Z,5.33
2023-09-16T07:37:46.419Z,5.13
2023-09-16T07:40:13.801Z,5.20
2023-09-16T07:42:40.806Z,5.27
2023-09-16T07:45:08.036Z,5.37
2023-09-16T07:47:34.947Z,5.60
2023-09-16T07:50:23.846Z,5.70
2023-09-16T07:52:50.425Z,4.93
2023-09-16T07:55:18.065Z,5.97
2023-09-16T07:57:44.668Z,5.83
2023-09-16T08:00:12.095Z,4.80
2023-09-16T08:02:39.048Z,5.27
2023-09-16T08:05:06.846Z,4.60
2023-09-16T08:07:33.422Z,4.63
2023-09-16T08:10:00.011Z,5.90
2023-09-16T08:12:29.262Z,4.50
2023-09-16T08:14:56.108Z,4.83
2023-09-16T08:17:23.101Z,4.70
2023-09-16T08:19:49.654Z,4.67
2023-09-16T08:22:16.491Z,4.13
2023-09-16T08:24:44.100Z,5.10
2023-09-16T08:27:32.996Z,4.80
2023-09-16T08:29:59.572Z,4.90
2023-09-16T08:32:30.355Z,4.10
2023-09-16T08:34:57.886Z,4.30
2023-09-16T08:37:24.981Z,4.40
2023-09-16T08:39:51.690Z,4.50
2023-09-16T08:42:27.725Z,4.50
2023-09-16T08:44:58.774Z,4.00
2023-09-16T08:47:29.999Z,4.20
2023-09-16T08:50:05.932Z,4.87
2023-09-16T08:52:54.143Z,4.50
2023-09-16T08:55:22.296Z,4.30
2023-09-16T08:57:54.658Z,4.73
2023-09-16T09:00:22.151Z,4.00
2023-09-16T09:02:51.169Z,5.03
2023-09-16T09:05:20.434Z,4.30
2023-09-16T09:07:47.302Z,4.40
2023-09-16T09:10:14.355Z,7.00
2023-09-16T09:12:43.358Z,4.13
2023-09-16T09:15:12.639Z,4.37
2023-09-16T09:17:57.016Z,3.63
2023-09-16T09:20:26.482Z,4.80
2023-09-16T09:22:53.723Z,4.10
2023-09-16T09:25:25.225Z,3.67
2023-09-16T09:27:53.561Z,5.00
2023-09-16T09:30:25.652Z,4.00
2023-09-16T09:32:52.855Z,3.73
2023-09-16T09:35:22.782Z,4.37
2023-09-16T09:37:50.104Z,3.13
2023-09-16T09:40:18.422Z,4.60
2023-09-16T09:42:53.677Z,3.70
2023-09-16T09:45:22.741Z,4.00
2023-09-16T09:47:51.604Z,3.57
2023-09-16T09:50:24.761Z,3.50
2023-09-16T09:52:53.447Z,3.10
2023-09-16T09:55:21.772Z,3.40
2023-09-16T09:57:51.808Z,3.10
2023-09-16T10:00:21.489Z,3.07
2023-09-16T10:02:49.688Z,2.83
2023-09-16T10:05:18.316Z,2.70
2023-09-16T10:07:45.871Z,3.17
2023-09-16T10:10:19.824Z,2.53
2023-09-16T10:12:48.235Z,2.37
2023-09-16T10:15:15.409Z,2.47
2023-09-16T10:17:43.750Z,2.37
2023-09-16T10:20:13.098Z,2.60
2023-09-16T10:22:41.702Z,2.80
2023-09-16T10:25:09.951Z,2.30
2023-09-16T10:27:53.624Z,2.73
2023-09-16T10:30:22.814Z,3.00
2023-09-16T10:32:51.237Z,2.57
2023-09-16T10:35:20.124Z,2.73
2023-09-16T10:37:52.240Z,2.17
2023-09-16T10:40:19.527Z,3.00
2023-09-16T10:42:48.146Z,2.80
2023-09-16T10:45:17.483Z,2.77
2023-09-16T10:48:06.749Z,2.27
2023-09-16T10:50:37.549Z,2.10
2023-09-16T10:53:14.975Z,2.60
2023-09-16T10:55:49.410Z,1.90
2023-09-16T10:58:26.942Z,2.10
2023-09-16T11:00:58.677Z,2.23
2023-09-16T11:03:32.148Z,2.83
2023-09-16T11:05:59.745Z,2.37
2023-09-16T11:08:26.672Z,2.17
2023-09-16T11:10:54.346Z,2.10
2023-09-16T11:13:22.679Z,2.70
2023-09-16T11:15:50.861Z,1.93
2023-09-16T11:18:17.751Z,2.10
2023-09-16T11:20:47.333Z,2.27
2023-09-16T11:23:14.044Z,2.50
2023-09-16T11:25:44.481Z,2.00
2023-09-16T11:28:17.404Z,2.40
2023-09-16T11:31:01.091Z,2.60
2023-09-16T11:33:38.855Z,2.10
2023-09-16T11:36:16.948Z,2.17
2023-09-16T11:38:54.481Z,2.00
2023-09-16T11:41:23.328Z,2.40
2023-09-16T11:43:50.526Z,2.80
2023-09-16T11:46:17.230Z,2.20
2023-09-16T11:48:51.173Z,2.47
2023-09-16T11:51:20.037Z,2.10
2023-09-16T11:53:48.878Z,2.47
2023-09-16T11:56:17.062Z,2.43
2023-09-16T11:58:45.492Z,2.10
2023-09-16T12:01:13.928Z,2.40
2023-09-16T12:03:43.873Z,2.70
2023-09-16T12:06:11.481Z,2.20
2023-09-16T12:08:41.331Z,2.73
2023-09-16T12:11:08.334Z,2.20
2023-09-16T12:13:35.790Z,2.13
2023-09-16T12:16:02.503Z,2.00
2023-09-16T12:18:29.990Z,2.20
2023-09-16T12:20:56.864Z,2.23
2023-09-16T12:23:29.079Z,2.13
2023-09-16T12:25:55.657Z,2.80
2023-09-16T12:28:24.026Z,2.17
2023-09-16T12:30:53.910Z,2.67
2023-09-16T12:33:21.796Z,2.50
2023-09-16T12:35:48.820Z,2.30
2023-09-16T12:38:18.605Z,2.37
2023-09-16T12:40:46.830Z,2.30
2023-09-16T12:43:13.826Z,1.93
2023-09-16T12:45:41.505Z,1.70
2023-09-16T12:48:11.363Z,2.00
2023-09-16T12:50:39.349Z,2.50
2023-09-16T12:53:06.301Z,2.23
2023-09-16T12:55:33.016Z,2.47
2023-09-16T12:58:00.506Z,2.20
2023-09-16T13:00:27.491Z,2.10
2023-09-16T13:02:54.593Z,2.00
2023-09-16T13:05:25.001Z,2.50
2023-09-16T13:07:53.768Z,2.03
2023-09-16T13:10:23.430Z,2.70
2023-09-16T13:12:51.482Z,2.90
2023-09-16T13:15:21.614Z,2.27
2023-09-16T13:18:05.350Z,2.47
2023-09-16T13:20:37.053Z,1.87
2023-09-16T13:23:04.693Z,2.20
2023-09-16T13:25:42.432Z,2.20
2023-09-16T13:28:15.080Z,2.50
2023-09-16T13:30:44.197Z,2.30
2023-09-16T13:33:11.549Z,2.30
2023-09-16T13:35:40.923Z,2.73
2023-09-16T13:38:10.225Z,2.57
2023-09-16T13:40:37.568Z,2.10
2023-09-16T13:43:06.536Z,2.30
2023-09-16T13:45:35.253Z,2.37
2023-09-16T13:48:18.334Z,2.00
2023-09-16T13:50:49.711Z,2.10
2023-09-16T13:53:19.101Z,1.97
2023-09-16T13:55:48.197Z,2.43
2023-09-16T13:58:15.757Z,2.40
2023-09-16T14:00:42.625Z,1.97
2023-09-16T14:03:09.289Z,2.47
2023-09-16T14:05:37.072Z,2.20
2023-09-16T14:08:04.964Z,2.20
2023-09-16T14:10:33.307Z,2.10
2023-09-16T14:13:07.762Z,2.23
2023-09-16T14:15:36.716Z,2.00
2023-09-16T14:18:07.459Z,2.40
2023-09-16T14:20:34.326Z,2.40
2023-09-16T14:23:02.797Z,2.53
2023-09-16T14:25:30.220Z,2.40
2023-09-16T14:27:58.043Z,2.13
2023-09-16T14:30:25.021Z,2.10
2023-09-16T14:32:52.025Z,2.50
2023-09-16T14:35:18.872Z,2.83
2023-09-16T14:37:46.986Z,1.90
2023-09-16T14:40:14.833Z,2.00
2023-09-16T14:42:42.032Z,3.13
2023-09-16T14:45:09.422Z,2.27
2023-09-16T14:47:36.080Z,2.67
2023-09-16T14:50:02.957Z,2.47
2023-09-16T14:52:31.150Z,2.13
2023-09-16T14:54:58.835Z,2.50
2023-09-16T14:57:25.478Z,2.00
2023-09-16T14:59:52.493Z,2.20
2023-09-16T15:02:19.537Z,2.00
2023-09-16T15:04:47.571Z,2.27
2023-09-16T15:07:14.201Z,2.43
2023-09-16T15:09:41.197Z,1.83
2023-09-16T15:12:08.352Z,2.20
2023-09-16T15:14:34.927Z,2.60
2023-09-16T15:17:01.903Z,2.63
2023-09-16T15:19:28.571Z,2.13
2023-09-16T15:21:55.261Z,2.37
2023-09-16T15:24:22.002Z,2.87
2023-09-16T15:26:48.615Z,2.87
2023-09-16T15:29:15.562Z,2.70
2023-09-16T15:31:42.830Z,2.30
2023-09-16T15:34:09.903Z,2.50
2023-09-16T15:36:37.043Z,2.30
2023-09-16T15:39:03.729Z,2.33
2023-09-16T15:41:30.402Z,2.27
2023-09-16T15:43:58.510Z,2.60
2023-09-16T15:46:25.431Z,3.03
2023-09-16T15:48:52.002Z,2.50
2023-09-16T15:51:18.999Z,2.33
2023-09-16T15:53:45.650Z,2.27
2023-09-16T15:56:13.657Z,2.87
2023-09-16T15:58:41.799Z,2.57
2023-09-16T16:01:08.909Z,2.50
2023-09-16T16:03:35.849Z,2.57
2023-09-16T16:06:03.804Z,2.80
2023-09-16T16:08:30.670Z,2.60
2023-09-16T16:10:57.530Z,2.73
2023-09-16T16:13:24.384Z,2.40
2023-09-16T16:15:52.236Z,3.00
2023-09-16T16:18:22.964Z,2.60
2023-09-16T16:20:49.870Z,2.37
2023-09-16T16:23:16.957Z,2.33
2023-09-16T16:25:45.974Z,3.40
2023-09-16T16:28:13.803Z,3.30
2023-09-16T16:30:40.823Z,3.07
2023-09-16T16:33:07.662Z,3.70
2023-09-16T16:35:34.314Z,3.37
2023-09-16T16:38:00.878Z,3.00
2023-09-16T16:40:27.556Z,3.07
2023-09-16T16:42:54.156Z,2.60
2023-09-16T16:45:20.751Z,2.40
2023-09-16T16:47:49.213Z,2.73
2023-09-16T16:50:17.668Z,3.10
2023-09-16T16:52:45.200Z,3.17
2023-09-16T16:55:12.071Z,2.80
2023-09-16T16:57:38.683Z,3.67
2023-09-16T17:00:07.013Z,3.80
2023-09-16T17:02:34.370Z,3.10
2023-09-16T17:05:01.731Z,3.00
2023-09-16T17:07:28.630Z,3.80
2023-09-16T17:09:58.517Z,2.70
2023-09-16T17:12:25.868Z,3.20
2023-09-16T17:14:52.771Z,2.63
2023-09-16T17:17:21.427Z,3.37
2023-09-16T17:19:49.181Z,3.00
2023-09-16T17:22:18.667Z,3.50
2023-09-16T17:24:45.992Z,2.73
2023-09-16T17:27:12.800Z,3.40
2023-09-16T17:29:39.629Z,3.03
2023-09-16T17:32:06.605Z,3.47
2023-09-16T17:34:33.740Z,2.17
2023-09-16T17:37:00.657Z,3.20
2023-09-16T17:39:27.653Z,3.10
2023-09-16T17:41:55.151Z,3.37
2023-09-16T17:44:21.874Z,2.60
2023-09-16T17:46:48.590Z,3.60
2023-09-16T17:49:16.324Z,3.37
2023-09-16T17:51:43.972Z,4.77
2023-09-16T17:54:10.937Z,4.60
2023-09-16T17:56:37.590Z,4.10
2023-09-16T17:59:07.531Z,4.20
2023-09-16T18:01:34.265Z,4.30
2023-09-16T18:04:01.305Z,4.13
2023-09-16T18:06:27.990Z,4.50
2023-09-16T18:08:54.628Z,5.50
2023-09-16T18:11:21.741Z,4.87
2023-09-16T18:13:48.715Z,5.17
2023-09-16T18:16:16.024Z,5.43
2023-09-16T18:18:43.101Z,5.90
2023-09-16T18:21:11.776Z,6.43
2023-09-16T18:23:38.815Z,6.60
2023-09-16T18:26:05.637Z,5.90
2023-09-16T18:28:32.876Z,5.30
2023-09-16T18:31:00.316Z,5.70
2023-09-16T18:33:30.324Z,4.80
2023-09-16T18:35:57.098Z,4.33
2023-09-16T18:38:24.620Z,4.03
2023-09-16T18:40:51.296Z,3.97
2023-09-16T18:43:20.361Z,3.77
2023-09-16T18:45:47.970Z,3.73
2023-09-16T18:48:15.445Z,3.70
2023-09-16T18:50:43.455Z,7.10
2023-09-16T18:53:12.924Z,7.63
2023-09-16T18:55:45.772Z,9.97
2023-09-16T18:58:16.356Z,7.37
2023-09-16T19:00:44.129Z,7.50
2023-09-16T19:03:11.686Z,6.37
2023-09-16T19:05:42.192Z,6.73
2023-09-16T19:08:10.233Z,6.07
2023-09-16T19:10:39.017Z,5.90
2023-09-16T19:13:06.750Z,5.77
2023-09-16T19:15:34.175Z,5.27
2023-09-16T19:18:01.047Z,5.83
2023-09-16T19:20:31.311Z,4.70
2023-09-16T19:23:00.024Z,4.57
2023-09-16T19:25:27.450Z,4.30
2023-09-16T19:27:54.243Z,4.03
2023-09-16T19:30:21.270Z,3.83
2023-09-16T19:32:48.263Z,3.83
2023-09-16T19:35:15.231Z,3.87
2023-09-16T19:37:41.949Z,3.80
2023-09-16T19:40:10.424Z,3.80
2023-09-16T19:42:37.496Z,3.60
2023-09-16T19:45:05.001Z,4.20
2023-09-16T19:47:33.301Z,3.60
2023-09-16T19:50:00.350Z,4.10
2023-09-16T19:52:27.159Z,4.20
2023-09-16T19:54:54.241Z,4.33
2023-09-16T19:57:21.001Z,5.00
2023-09-16T19:59:47.726Z,4.83
2023-09-16T20:02:14.898Z,4.40
2023-09-16T20:04:42.225Z,4.43
2023-09-16T20:07:09.937Z,4.90
2023-09-16T20:09:37.223Z,4.00
2023-09-16T20:12:04.297Z,4.70
2023-09-16T20:14:31.016Z,4.97
2023-09-16T20:16:57.916Z,4.40
2023-09-16T20:19:25.164Z,5.40
2023-09-16T20:21:51.929Z,4.13
2023-09-16T20:24:20.382Z,4.70
2023-09-16T20:26:47.072Z,4.30
2023-09-16T20:29:13.862Z,3.93
2023-09-16T20:31:40.762Z,4.30
2023-09-16T20:34:12.276Z,4.87
2023-09-16T20:36:45.463Z,3.80
2023-09-16T20:39:13.516Z,4.40
2023-09-16T20:41:40.280Z,4.10
2023-09-16T20:44:07.018Z,4.40
2023-09-16T20:46:34.121Z,3.80
2023-09-16T20:49:00.992Z,4.43
2023-09-16T20:51:27.895Z,4.03
2023-09-16T20:53:54.525Z,4.23
2023-09-16T20:56:21.134Z,4.40
2023-09-16T20:58:47.752Z,3.77
2023-09-16T21:01:14.531Z,4.57
2023-09-16T21:03:41.966Z,4.50
2023-09-16T21:06:08.951Z,4.67
2023-09-16T21:08:35.601Z,5.03
2023-09-16T21:11:02.895Z,4.20
2023-09-16T21:13:30.623Z,4.70
2023-09-16T21:15:57.394Z,4.20
2023-09-16T21:18:24.067Z,5.40
2023-09-16T21:20:51.061Z,4.80
2023-09-16T21:23:17.669Z,5.27
2023-09-16T21:25:44.569Z,5.27
2023-09-16T21:28:11.232Z,4.70
2023-09-16T21:30:40.132Z,5.00
2023-09-16T21:33:07.030Z,5.07
2023-09-16T21:35:33.805Z,5.43
2023-09-16T21:38:00.420Z,5.57
2023-09-16T21:40:27.192Z,5.30
2023-09-16T21:42:54.692Z,4.63
2023-09-16T21:45:21.435Z,5.60
2023-09-16T21:47:48.414Z,4.60
2023-09-16T21:50:15.893Z,5.47
2023-09-16T21:52:42.566Z,6.13
2023-09-16T21:55:09.378Z,6.13
2023-09-16T21:57:36.011Z,4.70
2023-09-16T22:00:04.912Z,5.10
2023-09-16T22:02:31.700Z,5.57
2023-09-16T22:04:58.378Z,5.20
2023-09-16T22:07:24.994Z,5.27
2023-09-16T22:09:51.613Z,5.30
2023-09-16T22:12:18.341Z,5.50
2023-09-16T22:14:44.968Z,5.63
2023-09-16T22:17:11.591Z,5.10
2023-09-16T22:19:38.249Z,5.63
2023-09-16T22:22:04.990Z,6.33
2023-09-16T22:24:32.432Z,5.50
2023-09-16T22:26:59.055Z,4.77
2023-09-16T22:29:25.720Z,5.70
2023-09-16T22:31:52.403Z,5.33
2023-09-16T22:34:19.520Z,5.23
2023-09-16T22:36:46.212Z,5.70
2023-09-16T22:39:13.098Z,5.50
2023-09-16T22:41:39.727Z,5.33
2023-09-16T22:44:06.454Z,6.20
2023-09-16T22:46:35.789Z,6.33
2023-09-16T22:49:03.796Z,6.87
2023-09-16T22:51:31.204Z,5.50
2023-09-16T22:53:57.822Z,5.50
2023-09-16T22:56:24.481Z,6.73
2023-09-16T22:58:51.609Z,5.70
2023-09-16T23:01:18.503Z,5.80
2023-09-16T23:03:45.328Z,6.10
2023-09-16T23:06:11.913Z,5.73
2023-09-16T23:08:38.485Z,5.70
2023-09-16T23:11:05.067Z,5.80
2023-09-16T23:13:31.739Z,5.97
2023-09-16T23:15:58.352Z,6.10
2023-09-16T23:18:25.033Z,6.03
2023-09-16T23:20:58.764Z,7.23
2023-09-16T23:23:26.579Z,5.00
2023-09-16T23:25:55.325Z,6.27
2023-09-16T23:28:22.203Z,5.43
2023-09-16T23:30:48.913Z,4.73
2023-09-16T23:33:17.240Z,5.63
2023-09-16T23:35:44.274Z,4.93
2023-09-16T23:38:14.374Z,5.80
2023-09-16T23:40:42.860Z,5.90
2023-09-16T23:43:09.601Z,5.63
2023-09-16T23:45:36.874Z,5.80
2023-09-16T23:48:06.600Z,6.17
2023-09-16T23:50:33.883Z,5.73
2023-09-16T23:53:00.805Z,5.43
2023-09-16T23:55:27.721Z,5.23
2023-09-16T23:57:54.812Z,6.03
